Time;durP1;ratioP1;P1;durP2;ratioP2;P2;SDS_P1;SDS_P2;PMS_P1;PMS_P2;Temp;Humidity;BMP_temperature;BMP_pressure;BME280_temperature;BME280_humidity;BME280_pressure;Samples;Min_cycle;Max_cycle;Signal;HPM_P1;HPM_P2
2021/09/21 00:02:25;;;;;;;7.22;2.10;;;;;;;7.60;72.53;98970.34;4907731;29;20090;-80
2021/09/21 00:05:48;;;;;;;6.93;2.50;;;;;;;7.74;72.29;98978.72;4957560;28;20059;-80
2021/09/21 00:09:10;;;;;;;6.38;1.98;;;;;;;7.32;72.24;98912.72;4925657;29;20127;-80
2021/09/21 00:12:52;;;;;;;6.13;2.28;;;;;;;7.74;72.33;98978.72;4934756;28;20442;-79
2021/09/21 00:16:20;;;;;;;4.97;2.10;;;;;;;7.55;72.36;98950.47;5000586;28;20086;-81
2021/09/21 00:19:32;;;;;;;5.50;2.17;;;;;;;7.31;72.35;98899.38;4964709;28;20116;-81
2021/09/21 00:22:51;;;;;;;5.88;2.25;;;;;;;7.40;72.32;98908.63;4968823;28;20368;-83
2021/09/21 00:31:14;;;;;;;7.70;2.30;;;;;;;7.76;72.24;98954.78;4965073;28;20059;-82
2021/09/21 00:35:25;;;;;;;6.07;2.28;;;;;;;7.20;72.52;98888.56;4890890;29;20143;-82
2021/09/21 00:39:15;;;;;;;5.78;2.10;;;;;;;7.70;72.56;98960.50;4840949;29;20160;-82
2021/09/21 00:55:46;;;;;;;5.28;1.92;;;;;;;7.34;72.42;98877.91;4789263;29;20098;-81
2021/09/21 00:58:38;;;;;;;4.28;1.90;;;;;;;7.32;72.41;98857.50;4903975;29;20052;-81
2021/09/21 01:01:09;;;;;;;4.03;1.73;;;;;;;7.51;72.45;98893.91;4943840;28;20050;-76
2021/09/21 01:03:35;;;;;;;6.63;1.92;;;;;;;7.80;72.43;98939.53;4977558;28;20066;-77
2021/09/21 01:06:05;;;;;;;4.30;1.75;;;;;;;7.78;72.25;98933.53;4982177;28;20054;-75
2021/09/21 01:08:31;;;;;;;3.88;1.80;;;;;;;7.83;72.25;98937.34;4980006;28;20430;-76
2021/09/21 01:11:03;;;;;;;4.10;1.63;;;;;;;7.74;72.60;98934.38;4957236;28;20514;-77
2021/09/21 01:13:30;;;;;;;4.88;1.85;;;;;;;7.72;72.73;98942.00;4947283;28;20470;-77
2021/09/21 01:15:59;;;;;;;4.60;1.90;;;;;;;7.76;72.56;98929.47;4980778;28;20408;-76
2021/09/21 01:18:28;;;;;;;4.50;1.90;;;;;;;7.81;72.41;98932.19;4955367;28;20152;-76
2021/09/21 01:21:01;;;;;;;3.67;1.60;;;;;;;7.90;72.25;98926.97;4955768;28;20054;-76
2021/09/21 01:23:28;;;;;;;5.25;1.77;;;;;;;7.80;72.08;98912.31;4973416;28;20098;-76
2021/09/21 01:25:54;;;;;;;;;;;;;;;7.83;72.32;98937.34;4954608;28;20336;-75
2021/09/21 01:28:20;;;;;;;4.40;1.75;;;;;;;7.71;72.48;98930.31;4959451;28;19961;-77
2021/09/21 01:30:47;;;;;;;3.67;1.60;;;;;;;7.72;72.53;98931.09;4972174;28;20114;-77
2021/09/21 01:33:18;;;;;;;4.47;1.67;;;;;;;7.80;72.54;98941.44;4950727;28;20058;-76
2021/09/21 01:35:47;;;;;;;5.65;1.98;;;;;;;7.84;72.57;98938.97;4955437;28;20508;-77
2021/09/21 01:38:12;;;;;;;5.13;1.88;;;;;;;7.82;72.46;98939.25;4972402;28;20059;-76
2021/09/21 01:40:40;;;;;;;5.30;2.10;;;;;;;7.76;72.78;98927.56;4938725;28;20062;-75
2021/09/21 01:43:06;;;;;;;;;;;;;;;7.75;72.79;98942.25;4974164;28;20055;-76
2021/09/21 01:45:32;;;;;;;4.78;1.70;;;;;;;7.74;72.72;98929.75;4974624;28;19948;-75
2021/09/21 01:47:59;;;;;;;6.65;2.08;;;;;;;7.74;72.69;98926.22;4957006;28;20511;-76
2021/09/21 01:50:33;;;;;;;3.53;1.60;;;;;;;7.85;72.62;98919.63;4964989;28;20062;-76
2021/09/21 02:01:13;;;;;;;4.50;1.83;;;;;;;7.80;72.52;98914.22;4946522;28;20137;-75
2021/09/21 02:03:42;;;;;;;5.60;1.77;;;;;;;7.78;72.82;98913.69;4950060;28;20047;-74
2021/09/21 02:06:11;;;;;;;5.03;1.85;;;;;;;7.77;73.03;98903.91;4969811;28;20058;-75
2021/09/21 02:08:37;;;;;;;3.97;1.77;;;;;;;7.80;72.97;98912.31;4976760;28;20057;-75
2021/09/21 02:11:05;;;;;;;4.10;1.70;;;;;;;7.77;72.83;98901.19;4955979;28;20462;-75
2021/09/21 02:13:32;;;;;;;6.55;1.70;;;;;;;7.79;72.60;98905.22;4964755;28;20302;-75
2021/09/21 02:15:59;;;;;;;3.78;1.60;;;;;;;7.79;73.00;98907.16;4958975;28;20046;-74
2021/09/21 02:18:25;;;;;;;3.92;1.60;;;;;;;7.79;72.75;98893.53;4962742;28;20132;-76
2021/09/21 02:20:51;;;;;;;3.60;1.48;;;;;;;7.88;72.90;98901.94;4959057;28;20105;-75
2021/09/21 02:23:18;;;;;;;3.53;1.50;;;;;;;7.84;72.82;98896.22;4974282;28;20050;-75
2021/09/21 02:25:45;;;;;;;5.82;1.67;;;;;;;7.88;72.64;98904.66;4958953;28;20510;-78
2021/09/21 02:28:15;;;;;;;4.53;1.63;;;;;;;7.89;72.38;98895.41;4987978;28;20133;-76
2021/09/21 02:30:41;;;;;;;4.35;1.40;;;;;;;7.95;72.44;98903.25;4974299;28;20109;-77
2021/09/21 02:33:07;;;;;;;4.70;2.13;;;;;;;7.83;72.41;98889.16;4971622;28;20058;-76
2021/09/21 02:35:34;;;;;;;3.40;1.50;;;;;;;7.97;72.44;98903.00;4971724;28;20039;-75
2021/09/21 02:38:03;;;;;;;5.95;1.60;;;;;;;7.93;72.44;98910.06;4972683;28;20057;-77
2021/09/21 02:40:30;;;;;;;4.97;1.70;;;;;;;7.86;72.57;98904.94;4973056;28;20059;-76
2021/09/21 02:42:56;;;;;;;4.55;1.52;;;;;;;7.87;72.63;98894.88;4944007;28;20103;-77
2021/09/21 02:45:26;;;;;;;3.85;1.50;;;;;;;7.97;72.26;98894.84;4955009;28;20062;-75
2021/09/21 02:47:52;;;;;;;3.97;1.60;;;;;;;7.98;72.40;98903.81;4954871;28;20504;-75
2021/09/21 02:50:18;;;;;;;3.63;1.65;;;;;;;7.92;72.30;98883.94;4976688;28;20056;-77
2021/09/21 02:52:44;;;;;;;4.28;1.58;;;;;;;7.92;72.36;98890.22;4987223;28;20081;-77
2021/09/21 02:55:11;;;;;;;4.22;1.77;;;;;;;7.98;72.25;98891.00;4955886;28;20129;-78
2021/09/21 02:57:37;;;;;;;4.28;1.75;;;;;;;7.93;72.54;98889.13;4949269;28;20097;-77
2021/09/21 03:00:09;;;;;;;4.32;1.75;;;;;;;7.91;72.57;98891.31;4942400;28;20063;-77
2021/09/21 03:02:40;;;;;;;5.95;1.90;;;;;;;7.93;72.58;98885.56;4947188;28;20054;-77
2021/09/21 03:05:15;;;;;;;6.10;1.80;;;;;;;7.89;72.30;98876.34;4961236;28;20054;-76
2021/09/21 03:07:45;;;;;;;5.10;1.92;;;;;;;7.87;72.51;98876.63;4972316;28;20059;-76
2021/09/21 03:17:51;;;;;;;5.35;1.63;;;;;;;7.93;72.53;98870.06;4976813;28;20162;-77
2021/09/21 03:20:17;;;;;;;3.45;1.52;;;;;;;7.98;72.50;98882.03;4953474;28;20118;-77
2021/09/21 03:22:45;;;;;;;6.07;1.90;;;;;;;7.99;72.52;98879.03;4939382;28;20050;-77
2021/09/21 03:25:12;;;;;;;;;;;;;;;8.03;72.32;98877.38;4969547;28;20559;-77
2021/09/21 03:27:39;;;;;;;6.88;2.25;;;;;;;7.96;72.28;98866.00;4982225;28;19925;-77
2021/09/21 03:30:11;;;;;;;9.65;2.67;;;;;;;7.99;72.28;98875.47;4974191;28;20058;-78
2021/09/21 03:32:38;;;;;;;8.00;3.10;;;;;;;8.05;72.18;98867.00;4954787;28;20524;-76
2021/09/21 03:35:07;;;;;;;5.28;2.00;;;;;;;8.06;72.12;98870.56;4980765;28;20093;-78
2021/09/21 03:37:33;;;;;;;5.25;1.88;;;;;;;8.06;72.08;98878.72;4984643;28;20081;-77
2021/09/21 03:40:00;;;;;;;4.07;1.70;;;;;;;8.04;72.45;98876.28;4992747;28;20243;-77
2021/09/21 03:42:25;;;;;;;4.97;1.70;;;;;;;8.03;72.42;98862.94;4981528;28;20066;-76
2021/09/21 03:44:55;;;;;;;4.35;1.67;;;;;;;8.02;72.70;98877.63;4957767;28;20046;-77
2021/09/21 03:47:20;;;;;;;4.38;1.70;;;;;;;8.05;72.50;98877.91;4978681;28;20059;-75
2021/09/21 03:50:15;;;;;;;6.80;2.17;;;;;;;7.93;72.66;98855.63;4975138;28;20109;-78
2021/09/21 03:52:41;;;;;;;4.82;1.80;;;;;;;7.90;72.64;98861.66;4928358;29;20150;-77
2021/09/21 03:55:11;;;;;;;5.13;2.03;;;;;;;7.82;72.90;98835.81;4962462;28;20156;-78
2021/09/21 03:57:37;;;;;;;4.65;1.65;;;;;;;7.94;72.86;98870.88;4949708;28;20523;-78
2021/09/21 04:00:05;;;;;;;5.30;2.00;;;;;;;8.02;72.87;98874.91;4971859;28;20149;-78
2021/09/21 04:02:40;;;;;;;6.00;1.88;;;;;;;7.95;73.13;98875.22;4947559;28;20059;-78
2021/09/21 04:05:07;;;;;;;5.38;2.00;;;;;;;8.00;73.10;98874.38;4943591;28;20055;-77
2021/09/21 04:07:34;;;;;;;4.75;1.85;;;;;;;7.98;73.26;98871.13;4962013;28;20667;-77
2021/09/21 04:10:00;;;;;;;7.57;2.08;;;;;;;7.91;73.47;98866.00;4954457;28;20062;-76
2021/09/21 04:12:26;;;;;;;5.95;2.08;;;;;;;7.90;73.51;98861.66;4955325;28;20055;-76
2021/09/21 04:14:52;;;;;;;5.60;2.13;;;;;;;7.92;73.68;98859.44;4955786;28;20153;-75
2021/09/21 04:17:23;;;;;;;7.18;2.40;;;;;;;7.97;73.59;98861.34;4959702;28;20074;-76
2021/09/21 04:19:50;;;;;;;6.65;2.30;;;;;;;7.98;73.42;98860.25;4982799;28;20078;-76
2021/09/21 04:22:16;;;;;;;6.13;2.30;;;;;;;7.97;73.10;98854.00;4984532;28;20058;-75
2021/09/21 04:24:43;;;;;;;6.45;2.40;;;;;;;7.98;73.28;98849.34;4981723;28;20064;-75
2021/09/21 04:27:12;;;;;;;5.50;2.15;;;;;;;7.91;73.38;98844.22;4969614;28;20137;-76
2021/09/21 04:29:41;;;;;;;6.00;2.13;;;;;;;8.02;73.31;98856.69;4958911;28;20428;-75
2021/09/21 04:32:07;;;;;;;5.10;1.80;;;;;;;8.05;73.38;98856.13;4974012;28;20062;-75
2021/09/21 04:34:36;;;;;;;6.07;1.98;;;;;;;8.03;73.29;98854.75;4967778;28;20046;-75
2021/09/21 04:37:03;;;;;;;7.45;1.98;;;;;;;8.07;73.12;98856.66;4967267;28;20050;-75
2021/09/21 04:39:29;;;;;;;6.53;2.10;;;;;;;8.08;73.23;98852.03;4963778;28;20523;-75
2021/09/21 04:41:57;;;;;;;4.93;2.00;;;;;;;8.00;73.24;98852.59;4986823;28;20145;-75
2021/09/21 04:44:23;;;;;;;4.93;1.98;;;;;;;8.06;73.45;98856.94;4965607;28;20046;-75
2021/09/21 04:46:49;;;;;;;6.93;2.20;;;;;;;7.98;73.83;98857.53;4980542;28;20069;-76
2021/09/21 04:49:15;;;;;;;5.45;1.95;;;;;;;7.90;73.69;98848.03;4983549;28;20056;-75
2021/09/21 04:51:42;;;;;;;6.90;2.45;;;;;;;8.03;73.41;98855.59;4978224;28;20482;-75
2021/09/21 04:54:08;;;;;;;5.20;2.22;;;;;;;7.93;73.77;98859.19;4978543;28;20051;-76
2021/09/21 04:56:34;;;;;;;5.90;2.13;;;;;;;7.99;73.71;98859.16;4965209;28;20058;-75
2021/09/21 04:59:03;;;;;;;6.07;2.45;;;;;;;8.01;73.90;98862.41;4963545;28;20055;-75
2021/09/21 05:01:32;;;;;;;7.07;2.67;;;;;;;8.03;73.67;98863.75;4993763;28;20054;-75
2021/09/21 05:03:58;;;;;;;6.35;2.30;;;;;;;8.06;73.69;98865.91;4960242;28;20051;-75
2021/09/21 05:06:24;;;;;;;6.78;2.45;;;;;;;8.00;73.81;98864.31;4975831;28;20411;-75
2021/09/21 05:08:56;;;;;;;6.60;2.50;;;;;;;8.03;73.54;98861.03;4975268;28;20051;-75
2021/09/21 05:11:27;;;;;;;6.00;2.40;;;;;;;7.99;73.88;98859.16;4972271;28;20085;-74
2021/09/21 05:13:56;;;;;;;6.03;2.20;;;;;;;8.02;73.76;98864.84;4956029;28;20067;-76
2021/09/21 05:16:23;;;;;;;7.47;2.50;;;;;;;8.00;74.11;98863.50;4956387;28;20109;-75
2021/09/21 05:18:52;;;;;;;10.35;2.40;;;;;;;8.05;73.96;98866.22;4982910;28;20065;-77
2021/09/21 05:21:18;;;;;;;6.13;2.30;;;;;;;7.93;73.89;98847.47;4957435;28;20471;-75
2021/09/21 05:23:44;;;;;;;7.03;2.40;;;;;;;7.90;74.06;98848.03;4974161;28;20059;-76
2021/09/21 05:26:11;;;;;;;6.82;2.42;;;;;;;8.06;73.82;98862.38;4957539;28;20058;-76
2021/09/21 05:28:37;;;;;;;6.47;2.28;;;;;;;8.05;73.85;98864.28;4990045;28;20144;-76
2021/09/21 05:31:09;;;;;;;8.95;2.60;;;;;;;8.02;74.07;98866.75;4970161;28;20074;-75
2021/09/21 05:33:36;;;;;;;5.93;2.35;;;;;;;8.04;73.97;98857.22;4992419;28;20101;-76
2021/09/21 05:36:02;;;;;;;5.90;2.05;;;;;;;8.12;73.90;98866.69;4974128;28;20050;-75
2021/09/21 05:38:29;;;;;;;6.88;2.33;;;;;;;8.13;73.71;98862.09;4958589;28;20081;-75
2021/09/21 05:40:56;;;;;;;5.97;2.20;;;;;;;8.02;73.96;98856.69;4931616;28;20519;-76
2021/09/21 05:43:25;;;;;;;7.47;2.58;;;;;;;8.10;73.96;98868.91;4960170;28;20074;-78
2021/09/21 05:45:51;;;;;;;7.68;2.90;;;;;;;8.06;74.19;98856.94;4972671;28;20463;-74
2021/09/21 05:48:17;;;;;;;7.47;2.70;;;;;;;8.02;73.90;98850.41;4986667;28;20058;-76
2021/09/21 05:50:44;;;;;;;8.00;2.97;;;;;;;8.04;74.21;98862.66;4975274;28;20489;-75
2021/09/21 05:53:10;;;;;;;11.15;3.28;;;;;;;8.09;74.11;98862.63;4958417;28;20476;-76
2021/09/21 05:55:36;;;;;;;9.77;3.15;;;;;;;8.05;74.39;98861.56;4959149;28;20152;-76
2021/09/21 05:58:02;;;;;;;9.23;3.13;;;;;;;8.07;74.37;98859.38;4982235;28;20058;-75
2021/09/21 06:00:28;;;;;;;8.02;3.00;;;;;;;7.98;74.20;98842.00;4991242;28;20054;-76
2021/09/21 06:02:54;;;;;;;7.80;2.90;;;;;;;8.04;74.40;98848.22;4984612;28;20081;-76
2021/09/21 06:05:20;;;;;;;8.60;2.58;;;;;;;8.09;74.41;98853.66;4956493;28;20133;-76
2021/09/21 06:07:52;;;;;;;8.75;2.60;;;;;;;8.09;74.60;98856.38;4967299;28;20065;-75
2021/09/21 06:10:20;;;;;;;8.38;2.65;;;;;;;8.12;74.17;98853.09;4973032;28;20096;-75
2021/09/21 06:12:46;;;;;;;7.55;2.38;;;;;;;8.12;74.29;98853.09;4962271;28;20070;-76
2021/09/21 06:15:14;;;;;;;6.88;2.25;;;;;;;8.14;74.35;98856.34;4953557;28;20057;-75
2021/09/21 06:17:43;;;;;;;6.68;2.35;;;;;;;8.09;74.49;98853.66;4948896;28;20051;-76
2021/09/21 06:20:11;;;;;;;6.40;2.30;;;;;;;8.14;74.62;98844.66;4974369;28;20094;-76
2021/09/21 06:22:41;;;;;;;6.70;2.65;;;;;;;8.06;74.74;98846.84;4971874;28;20047;-75
2021/09/21 06:25:11;;;;;;;7.95;3.00;;;;;;;8.02;74.82;98850.41;4971635;28;20086;-76
2021/09/21 06:27:40;;;;;;;7.32;2.47;;;;;;;8.09;74.60;98853.66;4975368;28;20047;-75
2021/09/21 06:30:08;;;;;;;8.48;2.65;;;;;;;8.02;74.84;98842.25;4973542;28;20050;-76
2021/09/21 06:32:35;;;;;;;6.07;2.20;;;;;;;8.14;74.65;98850.09;4955154;28;20064;-76
2021/09/21 06:35:01;;;;;;;5.80;2.20;;;;;;;8.16;74.56;98854.13;4967279;28;20097;-76
2021/09/21 06:37:28;;;;;;;5.55;2.20;;;;;;;8.06;74.70;98852.31;4975058;28;20055;-77
2021/09/21 06:39:54;;;;;;;7.22;2.33;;;;;;;8.15;74.67;98851.72;4940946;28;20065;-76
2021/09/21 06:42:22;;;;;;;8.20;2.60;;;;;;;8.13;74.57;98868.31;4988687;28;20539;-76
2021/09/21 06:44:48;;;;;;;8.98;2.25;;;;;;;8.11;74.78;98858.81;4944357;28;20061;-76
2021/09/21 06:47:14;;;;;;;6.32;2.50;;;;;;;8.09;74.76;98868.06;4954423;28;20050;-76
2021/09/21 06:49:40;;;;;;;6.82;2.50;;;;;;;8.10;74.71;98868.91;4974188;28;20058;-75
2021/09/21 06:52:06;;;;;;;7.20;2.33;;;;;;;8.08;74.55;98865.66;4972551;28;20058;-74
2021/09/21 06:54:31;;;;;;;8.30;2.67;;;;;;;8.10;74.98;98871.63;4968095;28;20081;-75
2021/09/21 06:56:57;;;;;;;9.13;3.30;;;;;;;8.12;74.96;98865.88;4968851;28;20051;-74
2021/09/21 06:59:25;;;;;;;8.50;2.67;;;;;;;8.08;74.80;98874.59;4960875;28;20385;-75
2021/09/21 07:01:51;;;;;;;10.68;3.63;;;;;;;8.07;74.81;98862.09;4958798;28;20337;-76
2021/09/21 07:04:17;;;;;;;11.95;3.17;;;;;;;8.14;74.82;98869.94;4962138;28;20078;-75
2021/09/21 07:06:43;;;;;;;9.98;3.05;;;;;;;8.16;74.81;98875.13;4962732;28;20058;-77
2021/09/21 07:09:09;;;;;;;11.20;3.15;;;;;;;8.09;75.02;98865.34;4989651;28;20054;-76
2021/09/21 07:11:35;;;;;;;12.57;3.10;;;;;;;8.08;75.26;98862.91;4958066;28;20069;-76
2021/09/21 07:14:01;;;;;;;10.45;2.78;;;;;;;8.16;75.05;98875.94;4965186;28;20054;-77
2021/09/21 07:16:29;;;;;;;8.40;2.60;;;;;;;8.17;75.04;98871.31;4972610;28;20146;-76
2021/09/21 07:18:55;;;;;;;8.95;3.00;;;;;;;8.09;75.31;98870.78;4954055;28;20456;-77
2021/09/21 07:21:21;;;;;;;7.53;2.78;;;;;;;8.09;75.33;98868.06;4940535;28;20058;-77
2021/09/21 07:23:48;;;;;;;8.35;2.90;;;;;;;8.15;75.23;98870.78;4954499;28;20050;-77
2021/09/21 07:26:14;;;;;;;8.93;2.95;;;;;;;8.14;75.20;98872.69;4971828;28;20054;-78
2021/09/21 07:28:40;;;;;;;9.38;2.70;;;;;;;8.09;75.13;98859.91;4959832;28;20057;-79
2021/09/21 07:31:06;;;;;;;9.45;3.08;;;;;;;8.15;75.29;98868.06;4948427;28;20120;-77
2021/09/21 07:33:34;;;;;;;9.10;3.08;;;;;;;8.19;75.22;98866.38;4958815;28;20058;-77
2021/09/21 07:36:00;;;;;;;10.82;2.80;;;;;;;8.18;75.18;98870.22;4956036;28;20464;-77
2021/09/21 07:38:26;;;;;;;10.52;3.15;;;;;;;8.21;75.13;98880.53;4992485;28;20227;-77
2021/09/21 07:40:52;;;;;;;8.88;2.80;;;;;;;8.22;75.04;98871.28;4953094;28;20257;-76
2021/09/21 07:43:17;;;;;;;9.10;3.13;;;;;;;8.18;75.07;98873.72;4976654;28;20054;-77
2021/09/21 07:45:43;;;;;;;10.20;2.75;;;;;;;8.22;75.23;98874.00;4957841;28;20525;-77
2021/09/21 07:48:10;;;;;;;6.65;2.47;;;;;;;8.16;75.51;98865.03;4957546;28;20171;-77
2021/09/21 07:50:38;;;;;;;10.80;2.92;;;;;;;8.23;75.31;98872.91;4957358;28;20138;-77
2021/09/21 07:53:05;;;;;;;9.55;3.08;;;;;;;8.16;75.24;98870.47;4956722;28;20054;-77
2021/09/21 07:55:31;;;;;;;7.13;2.92;;;;;;;8.18;75.29;98860.13;4974586;28;20445;-77
2021/09/21 07:58:05;;;;;;;10.25;3.05;;;;;;;8.22;75.23;98871.28;4941953;28;20069;-77
2021/09/21 08:00:31;;;;;;;8.45;2.95;;;;;;;8.22;75.26;98868.53;4940617;28;20047;-76
2021/09/21 08:02:57;;;;;;;9.32;3.30;;;;;;;8.24;75.33;98866.34;4973888;28;20046;-77
2021/09/21 08:05:23;;;;;;;9.50;3.08;;;;;;;8.20;75.35;98857.94;4940791;28;20085;-77
2021/09/21 08:07:51;;;;;;;9.40;3.65;;;;;;;8.06;75.42;98829.72;4973480;28;20423;-76
2021/09/21 08:10:17;;;;;;;14.45;3.58;;;;;;;8.27;75.31;98868.50;4973294;28;20458;-77
2021/09/21 08:12:47;;;;;;;8.07;3.00;;;;;;;8.33;75.24;98863.84;4970324;28;20051;-76
2021/09/21 08:15:14;;;;;;;9.55;3.05;;;;;;;8.27;75.17;98862.25;4957443;28;20051;-76
2021/09/21 08:17:41;;;;;;;9.57;3.20;;;;;;;8.13;75.21;98846.53;4968618;28;20051;-77
2021/09/21 08:20:08;;;;;;;10.07;2.90;;;;;;;8.28;75.41;98862.00;4973114;28;20058;-77
2021/09/21 08:22:36;;;;;;;8.13;3.13;;;;;;;8.35;75.24;98867.91;4955751;28;20582;-76
2021/09/21 08:25:05;;;;;;;7.30;3.00;;;;;;;8.38;74.90;98870.06;4961773;28;20086;-76
2021/09/21 08:27:31;;;;;;;8.50;2.97;;;;;;;8.40;74.73;98866.25;4941885;28;20055;-76
2021/09/21 08:29:57;;;;;;;8.43;3.38;;;;;;;8.32;75.01;98857.59;4970336;28;20113;-77
2021/09/21 08:32:23;;;;;;;11.30;4.03;;;;;;;8.37;75.04;98876.63;4968212;28;20050;-76
2021/09/21 08:34:49;;;;;;;9.85;3.20;;;;;;;8.36;75.06;98858.66;4956400;28;20057;-76
2021/09/21 08:37:15;;;;;;;10.13;3.47;;;;;;;8.40;75.09;98864.34;4946220;28;20251;-76
2021/09/21 08:39:42;;;;;;;9.23;3.55;;;;;;;8.35;75.15;98865.19;4973739;28;20058;-77
2021/09/21 08:42:10;;;;;;;11.15;3.28;;;;;;;8.33;75.17;98864.66;4971746;28;20046;-81
2021/09/21 08:44:37;;;;;;;10.85;3.47;;;;;;;8.40;75.08;98872.53;4940579;28;20503;-77
2021/09/21 08:47:04;;;;;;;9.63;3.40;;;;;;;8.35;75.06;98861.63;4972004;28;20162;-76
2021/09/21 08:49:30;;;;;;;8.57;3.35;;;;;;;8.42;75.04;98878.50;4951418;28;20153;-77
2021/09/21 08:51:57;;;;;;;8.98;3.10;;;;;;;8.46;74.80;98876.81;4956963;28;20158;-78
2021/09/21 08:54:23;;;;;;;8.73;3.50;;;;;;;8.34;75.04;98869.00;4957198;28;20059;-76
2021/09/21 08:56:48;;;;;;;10.20;3.53;;;;;;;8.36;74.97;98877.72;4954039;28;20483;-77
2021/09/21 08:59:27;;;;;;;8.63;2.95;;;;;;;8.43;75.02;98879.28;4967814;28;20082;-76
2021/09/21 09:01:53;;;;;;;10.98;4.05;;;;;;;8.28;74.71;98842.09;4952288;28;20046;-78
2021/09/21 09:04:25;;;;;;;8.02;3.13;;;;;;;8.38;74.77;98869.28;4977998;28;20055;-81
2021/09/21 09:07:09;;;;;;;8.23;3.00;;;;;;;8.38;75.00;98870.06;4957387;28;20551;-80
2021/09/21 09:10:15;;;;;;;9.65;2.90;;;;;;;8.01;74.80;98810.69;4933686;29;20052;-80
2021/09/21 09:13:12;;;;;;;7.65;3.22;;;;;;;8.17;74.66;98833.97;4940037;29;20058;-81
2021/09/21 09:15:52;;;;;;;8.35;3.20;;;;;;;8.26;74.60;98836.91;4941998;29;20055;-80
2021/09/21 09:18:24;;;;;;;7.00;3.10;;;;;;;7.99;74.90;98816.41;4959145;28;20059;-81
2021/09/21 09:21:10;;;;;;;8.30;3.35;;;;;;;7.97;74.86;98801.44;4949633;29;20053;-81
2021/09/21 09:23:52;;;;;;;9.68;3.75;;;;;;;8.01;74.72;98810.69;4943940;29;20071;-82
2021/09/21 09:26:24;;;;;;;11.60;3.92;;;;;;;8.29;74.96;98851.88;4955709;29;20078;-82
2021/09/21 09:29:01;;;;;;;13.18;4.22;;;;;;;8.18;74.84;98832.09;4937964;29;20058;-80
2021/09/21 09:31:37;;;;;;;13.63;4.47;;;;;;;8.01;74.96;98821.56;4937347;29;20062;-82
2021/09/21 09:34:09;;;;;;;18.52;5.25;;;;;;;8.02;74.63;98815.03;4959457;28;20165;-79
2021/09/21 09:37:04;;;;;;;10.82;3.53;;;;;;;8.01;75.05;98814.22;4925127;28;20069;-82
2021/09/21 09:39:37;;;;;;;10.18;3.67;;;;;;;8.06;74.59;98814.19;4956168;28;20054;-81
2021/09/21 09:42:14;;;;;;;11.95;3.63;;;;;;;8.20;74.65;98836.16;4938659;28;20055;-80
2021/09/21 09:44:45;;;;;;;9.90;3.90;;;;;;;8.07;74.61;98817.72;4973680;28;20067;-79
2021/09/21 09:47:15;;;;;;;11.88;3.80;;;;;;;8.33;74.55;98853.78;4973883;28;20470;-80
2021/09/21 09:49:46;;;;;;;;;;;;;;;8.45;75.01;98885.31;4953445;28;20051;-80
2021/09/21 09:52:33;;;;;;;9.00;3.50;;;;;;;8.39;74.92;98887.25;4939351;29;19972;-81
2021/09/21 09:55:44;;;;;;;9.13;3.80;;;;;;;8.00;74.94;98819.94;4952258;28;20460;-81
2021/09/21 09:58:20;;;;;;;8.95;3.33;;;;;;;8.02;74.51;98824.03;4974981;28;20101;-80
2021/09/21 10:00:48;;;;;;;7.38;2.88;;;;;;;8.44;74.51;98889.13;4952500;28;20538;-81
2021/09/21 10:03:16;;;;;;;9.68;3.60;;;;;;;8.41;74.83;98892.38;4961405;28;20074;-76
2021/09/21 10:05:42;;;;;;;;;;;;;;;8.45;74.84;98888.03;4971517;28;20065;-73
2021/09/21 10:08:10;;;;;;;8.27;3.40;;;;;;;8.42;74.91;98894.00;4969892;28;19925;-73
2021/09/21 10:10:38;;;;;;;9.35;3.42;;;;;;;8.41;74.83;98879.59;4972194;28;20065;-73
2021/09/21 10:13:08;;;;;;;8.20;3.35;;;;;;;8.49;74.67;98880.91;4971036;28;20063;-73
2021/09/21 10:15:35;;;;;;;8.45;3.38;;;;;;;8.45;74.67;98879.84;4967351;28;20054;-74
2021/09/21 10:18:01;;;;;;;9.87;3.27;;;;;;;8.48;74.96;98898.34;4937580;28;20057;-75
2021/09/21 10:20:32;;;;;;;8.88;3.67;;;;;;;8.53;74.78;98890.16;4947414;28;20306;-75
2021/09/21 10:22:59;;;;;;;9.73;3.53;;;;;;;8.55;74.74;98893.41;4971308;28;20078;-74
2021/09/21 10:25:28;;;;;;;9.27;3.40;;;;;;;8.53;74.88;98890.16;4971416;28;20511;-74
2021/09/21 10:27:54;;;;;;;9.38;3.05;;;;;;;8.48;74.90;98892.91;4967993;28;20534;-76
2021/09/21 10:30:22;;;;;;;11.00;3.50;;;;;;;8.54;74.76;98894.50;4953683;28;20574;-75
2021/09/21 10:32:50;;;;;;;10.13;3.55;;;;;;;8.49;74.57;98887.16;4972113;28;20062;-76
2021/09/21 10:35:18;;;;;;;12.27;3.83;;;;;;;8.53;74.75;98894.81;4954774;28;20061;-77
2021/09/21 10:37:56;;;;;;;12.02;4.00;;;;;;;8.46;74.61;98895.09;4969133;28;20152;-74
2021/09/21 10:40:33;;;;;;;9.00;3.72;;;;;;;8.48;74.79;98899.16;4970674;28;20145;-75
2021/09/21 10:42:59;;;;;;;10.25;3.90;;;;;;;8.44;74.92;98900.81;4970991;28;20058;-75
2021/09/21 10:45:25;;;;;;;14.70;3.65;;;;;;;8.40;74.81;98891.59;4983052;28;20058;-74
2021/09/21 10:48:00;;;;;;;8.02;3.63;;;;;;;8.47;74.71;98897.53;4950574;28;20047;-74
2021/09/21 10:50:36;;;;;;;10.70;3.83;;;;;;;8.42;74.69;98892.13;4946191;28;20055;-77
2021/09/21 10:53:05;;;;;;;9.48;3.55;;;;;;;8.39;74.99;98906.31;4960076;28;20055;-77
2021/09/21 10:55:34;;;;;;;8.73;3.65;;;;;;;8.36;74.89;98890.53;4958713;28;20110;-76
2021/09/21 10:58:03;;;;;;;8.52;3.35;;;;;;;8.48;74.82;98909.25;4943414;28;20065;-76
2021/09/21 11:00:33;;;;;;;9.82;3.65;;;;;;;8.49;74.76;98903.50;4958939;28;20494;-76
2021/09/21 11:03:00;;;;;;;10.00;3.78;;;;;;;8.49;74.81;98910.88;4971042;28;20069;-77
2021/09/21 11:05:27;;;;;;;9.45;3.80;;;;;;;8.48;74.76;98911.97;4957035;29;20070;-76
2021/09/21 11:07:55;;;;;;;8.77;3.97;;;;;;;8.42;74.80;98911.19;4958141;28;20538;-77
2021/09/21 11:10:27;;;;;;;10.80;3.70;;;;;;;8.46;74.99;98901.34;4975411;28;20062;-76
2021/09/21 11:12:53;;;;;;;10.10;4.28;;;;;;;8.49;74.76;98891.81;4958943;28;20054;-76
2021/09/21 11:15:23;;;;;;;9.75;3.90;;;;;;;8.55;74.68;98904.31;4959888;28;20476;-77
2021/09/21 11:17:59;;;;;;;14.95;4.22;;;;;;;8.54;74.63;98893.72;4975712;28;20082;-77
2021/09/21 11:20:25;;;;;;;8.93;3.65;;;;;;;8.54;74.63;98896.44;4938389;28;20430;-74
2021/09/21 11:22:51;;;;;;;8.43;3.33;;;;;;;8.48;74.78;98899.16;4974050;28;20054;-75
2021/09/21 11:25:21;;;;;;;8.70;3.53;;;;;;;8.48;74.80;98899.16;4971129;28;20121;-75
2021/09/21 11:27:48;;;;;;;12.50;4.05;;;;;;;8.41;74.90;98895.09;4955490;28;20047;-77
2021/09/21 11:30:17;;;;;;;8.40;3.70;;;;;;;8.43;75.02;98896.47;4974006;28;20534;-74
2021/09/21 11:32:44;;;;;;;9.32;3.60;;;;;;;8.40;75.04;98877.97;4973104;28;20055;-75
2021/09/21 11:35:12;;;;;;;10.63;3.42;;;;;;;8.51;74.67;98893.19;4971476;28;20070;-74
2021/09/21 11:37:41;;;;;;;7.32;3.00;;;;;;;8.42;74.80;98888.56;4984461;28;20053;-75
2021/09/21 11:40:08;;;;;;;9.50;3.13;;;;;;;8.49;74.74;98897.25;4959298;28;20057;-74
2021/09/21 11:42:36;;;;;;;9.25;3.78;;;;;;;8.51;74.61;98895.91;4973423;28;20050;-75
2021/09/21 11:45:05;;;;;;;7.65;2.95;;;;;;;8.54;74.52;98899.97;4958026;28;20077;-75
2021/09/21 11:47:36;;;;;;;8.77;3.15;;;;;;;8.58;74.39;98895.56;4961152;28;20085;-74
2021/09/21 11:50:07;;;;;;;8.52;3.20;;;;;;;8.57;74.39;98887.69;4953524;28;20050;-75
2021/09/21 11:52:33;;;;;;;8.50;3.17;;;;;;;8.45;74.74;98888.03;4954550;28;20541;-74
2021/09/21 11:55:00;;;;;;;7.90;3.15;;;;;;;8.53;74.63;98890.16;4957887;28;20071;-73
2021/09/21 11:57:27;;;;;;;7.63;3.00;;;;;;;8.56;74.46;98886.06;4982944;28;20050;-73
2021/09/21 11:59:54;;;;;;;9.05;3.17;;;;;;;8.60;74.27;98885.22;4967283;28;20051;-73
2021/09/21 12:02:21;;;;;;;7.28;3.10;;;;;;;8.57;74.29;98882.25;4974082;28;20137;-73
2021/09/21 12:04:47;;;;;;;7.45;2.88;;;;;;;8.59;74.17;98882.78;4969940;28;20114;-73
2021/09/21 12:07:14;;;;;;;7.28;2.90;;;;;;;8.57;74.18;98885.75;4937994;29;20051;-74
2021/09/21 12:09:40;;;;;;;10.65;2.95;;;;;;;8.57;74.31;98895.88;4957416;28;20467;-74
2021/09/21 12:12:13;;;;;;;6.32;2.63;;;;;;;8.57;74.33;98891.22;4970091;28;20054;-73
2021/09/21 12:14:39;;;;;;;8.15;2.80;;;;;;;8.58;74.35;98883.88;4969630;28;20649;-73
2021/09/21 12:17:04;;;;;;;8.80;2.97;;;;;;;8.59;74.04;98886.31;4968416;28;20063;-76
2021/09/21 12:19:40;;;;;;;6.65;2.65;;;;;;;8.61;74.17;98892.28;4976162;28;20057;-74
2021/09/21 12:22:06;;;;;;;9.63;2.80;;;;;;;8.58;74.10;98890.13;4975168;28;20055;-73
2021/09/21 12:24:32;;;;;;;21.77;3.20;;;;;;;8.59;74.15;98889.03;4957747;28;20491;-74
2021/09/21 12:27:02;;;;;;;11.23;3.30;;;;;;;8.60;74.20;98881.66;4942238;28;20141;-73
2021/09/21 12:29:31;;;;;;;7.32;2.80;;;;;;;8.62;74.20;98888.47;4980306;28;20058;-75
2021/09/21 12:31:58;;;;;;;8.43;2.80;;;;;;;8.57;74.06;98891.22;4978747;28;20059;-74
2021/09/21 12:34:33;;;;;;;8.48;3.30;;;;;;;8.59;74.21;98880.88;4966536;28;20078;-75